sensor_id;sensor_type;location;lat;lon;timestamp;P1;durP1;ratioP1;P2;durP2;ratioP2
59872;SDS011;50750;51.636;4.948;2023-07-22T00:01:25;4.50;;;3.70;;
59872;SDS011;50750;51.636;4.948;2023-07-22T00:03:52;5.60;;;3.70;;
59872;SDS011;50750;51.636;4.948;2023-07-22T00:06:18;6.00;;;4.50;;
59872;SDS011;50750;51.636;4.948;2023-07-22T00:08:45;5.20;;;4.30;;
59872;SDS011;50750;51.636;4.948;2023-07-22T00:11:11;4.70;;;3.70;;
59872;SDS011;50750;51.636;4.948;2023-07-22T00:13:37;4.90;;;3.80;;
59872;SDS011;50750;51.636;4.948;2023-07-22T00:16:04;5.50;;;4.00;;
59872;SDS011;50750;51.636;4.948;2023-07-22T00:18:30;4.60;;;3.80;;
59872;SDS011;50750;51.636;4.948;2023-07-22T00:20:57;5.50;;;4.30;;
59872;SDS011;50750;51.636;4.948;2023-07-22T00:23:23;5.70;;;4.00;;
59872;SDS011;50750;51.636;4.948;2023-07-22T00:25:50;5.00;;;4.00;;
59872;SDS011;50750;51.636;4.948;2023-07-22T00:28:17;5.10;;;3.90;;
59872;SDS011;50750;51.636;4.948;2023-07-22T00:30:44;5.40;;;4.00;;
59872;SDS011;50750;51.636;4.948;2023-07-22T00:33:11;6.00;;;4.20;;
59872;SDS011;50750;51.636;4.948;2023-07-22T00:35:38;5.30;;;3.90;;
59872;SDS011;50750;51.636;4.948;2023-07-22T00:38:04;6.20;;;4.40;;
59872;SDS011;50750;51.636;4.948;2023-07-22T00:40:31;5.60;;;4.20;;
59872;SDS011;50750;51.636;4.948;2023-07-22T00:42:58;5.90;;;4.40;;
59872;SDS011;50750;51.636;4.948;2023-07-22T00:45:25;5.30;;;3.90;;
59872;SDS011;50750;51.636;4.948;2023-07-22T00:47:52;5.20;;;4.10;;
59872;SDS011;50750;51.636;4.948;2023-07-22T00:50:19;4.80;;;3.70;;
59872;SDS011;50750;51.636;4.948;2023-07-22T00:52:45;4.50;;;3.60;;
59872;SDS011;50750;51.636;4.948;2023-07-22T00:55:13;5.60;;;4.10;;
59872;SDS011;50750;51.636;4.948;2023-07-22T00:57:40;5.30;;;3.90;;
59872;SDS011;50750;51.636;4.948;2023-07-22T01:00:06;5.00;;;3.70;;
59872;SDS011;50750;51.636;4.948;2023-07-22T01:02:38;5.50;;;4.10;;
59872;SDS011;50750;51.636;4.948;2023-07-22T01:05:06;4.80;;;3.90;;
59872;SDS011;50750;51.636;4.948;2023-07-22T01:07:36;4.90;;;4.00;;
59872;SDS011;50750;51.636;4.948;2023-07-22T01:10:04;5.10;;;3.90;;
59872;SDS011;50750;51.636;4.948;2023-07-22T01:12:36;5.50;;;3.70;;
59872;SDS011;50750;51.636;4.948;2023-07-22T01:15:03;5.30;;;3.70;;
59872;SDS011;50750;51.636;4.948;2023-07-22T01:17:34;4.90;;;3.80;;
59872;SDS011;50750;51.636;4.948;2023-07-22T01:20:02;4.90;;;4.00;;
59872;SDS011;50750;51.636;4.948;2023-07-22T01:22:29;6.40;;;4.20;;
59872;SDS011;50750;51.636;4.948;2023-07-22T01:24:57;5.00;;;3.90;;
59872;SDS011;50750;51.636;4.948;2023-07-22T01:27:25;5.40;;;3.90;;
59872;SDS011;50750;51.636;4.948;2023-07-22T01:29:51;5.30;;;3.80;;
59872;SDS011;50750;51.636;4.948;2023-07-22T01:32:18;4.80;;;3.60;;
59872;SDS011;50750;51.636;4.948;2023-07-22T01:34:46;5.00;;;4.00;;
59872;SDS011;50750;51.636;4.948;2023-07-22T01:37:12;5.60;;;4.00;;
59872;SDS011;50750;51.636;4.948;2023-07-22T01:39:39;5.70;;;4.00;;
59872;SDS011;50750;51.636;4.948;2023-07-22T01:42:05;5.10;;;4.00;;
59872;SDS011;50750;51.636;4.948;2023-07-22T01:44:32;5.40;;;4.10;;
59872;SDS011;50750;51.636;4.948;2023-07-22T01:47:01;5.30;;;4.00;;
59872;SDS011;50750;51.636;4.948;2023-07-22T01:49:28;5.50;;;4.00;;
59872;SDS011;50750;51.636;4.948;2023-07-22T01:51:55;5.10;;;4.20;;
59872;SDS011;50750;51.636;4.948;2023-07-22T01:54:22;6.10;;;3.80;;
59872;SDS011;50750;51.636;4.948;2023-07-22T01:56:48;6.10;;;4.20;;
59872;SDS011;50750;51.636;4.948;2023-07-22T01:59:14;5.00;;;3.80;;
59872;SDS011;50750;51.636;4.948;2023-07-22T02:01:41;5.00;;;3.70;;
59872;SDS011;50750;51.636;4.948;2023-07-22T02:04:07;5.70;;;4.10;;
59872;SDS011;50750;51.636;4.948;2023-07-22T02:06:33;6.20;;;4.20;;
59872;SDS011;50750;51.636;4.948;2023-07-22T02:09:00;5.60;;;3.80;;
59872;SDS011;50750;51.636;4.948;2023-07-22T02:11:37;4.80;;;3.90;;
59872;SDS011;50750;51.636;4.948;2023-07-22T02:19:05;4.80;;;3.70;;
59872;SDS011;50750;51.636;4.948;2023-07-22T02:21:31;6.40;;;4.20;;
59872;SDS011;50750;51.636;4.948;2023-07-22T02:23:58;5.70;;;4.30;;
59872;SDS011;50750;51.636;4.948;2023-07-22T02:26:25;6.00;;;3.80;;
59872;SDS011;50750;51.636;4.948;2023-07-22T02:28:51;5.90;;;4.60;;
59872;SDS011;50750;51.636;4.948;2023-07-22T02:31:17;5.20;;;3.90;;
59872;SDS011;50750;51.636;4.948;2023-07-22T02:33:44;6.00;;;4.10;;
59872;SDS011;50750;51.636;4.948;2023-07-22T02:36:10;5.80;;;3.60;;
59872;SDS011;50750;51.636;4.948;2023-07-22T02:38:37;6.50;;;4.30;;
59872;SDS011;50750;51.636;4.948;2023-07-22T02:41:04;5.20;;;3.60;;
59872;SDS011;50750;51.636;4.948;2023-07-22T02:43:33;4.80;;;3.60;;
59872;SDS011;50750;51.636;4.948;2023-07-22T02:46:02;5.70;;;4.00;;
59872;SDS011;50750;51.636;4.948;2023-07-22T02:48:30;6.20;;;4.40;;
59872;SDS011;50750;51.636;4.948;2023-07-22T02:51:06;5.60;;;4.20;;
59872;SDS011;50750;51.636;4.948;2023-07-22T02:53:34;5.50;;;4.00;;
59872;SDS011;50750;51.636;4.948;2023-07-22T02:56:05;6.20;;;4.20;;
59872;SDS011;50750;51.636;4.948;2023-07-22T02:58:33;5.00;;;4.10;;
59872;SDS011;50750;51.636;4.948;2023-07-22T03:01:00;6.10;;;4.10;;
59872;SDS011;50750;51.636;4.948;2023-07-22T03:03:27;5.60;;;4.20;;
59872;SDS011;50750;51.636;4.948;2023-07-22T03:05:53;5.20;;;3.80;;
59872;SDS011;50750;51.636;4.948;2023-07-22T03:08:19;5.20;;;3.70;;
59872;SDS011;50750;51.636;4.948;2023-07-22T03:10:46;4.90;;;3.80;;
59872;SDS011;50750;51.636;4.948;2023-07-22T03:13:15;5.00;;;3.90;;
59872;SDS011;50750;51.636;4.948;2023-07-22T03:15:42;5.50;;;4.10;;
59872;SDS011;50750;51.636;4.948;2023-07-22T03:18:09;5.50;;;4.40;;
59872;SDS011;50750;51.636;4.948;2023-07-22T03:20:37;4.80;;;3.60;;
59872;SDS011;50750;51.636;4.948;2023-07-22T03:23:06;4.90;;;4.00;;
59872;SDS011;50750;51.636;4.948;2023-07-22T03:25:34;5.40;;;4.10;;
59872;SDS011;50750;51.636;4.948;2023-07-22T03:28:02;6.20;;;4.00;;
59872;SDS011;50750;51.636;4.948;2023-07-22T03:30:30;5.60;;;3.90;;
59872;SDS011;50750;51.636;4.948;2023-07-22T03:32:57;6.50;;;4.30;;
59872;SDS011;50750;51.636;4.948;2023-07-22T03:35:24;5.70;;;4.10;;
59872;SDS011;50750;51.636;4.948;2023-07-22T03:37:51;6.20;;;4.30;;
59872;SDS011;50750;51.636;4.948;2023-07-22T03:40:17;4.80;;;3.70;;
59872;SDS011;50750;51.636;4.948;2023-07-22T03:42:50;4.80;;;3.50;;
59872;SDS011;50750;51.636;4.948;2023-07-22T03:45:17;5.70;;;4.10;;
59872;SDS011;50750;51.636;4.948;2023-07-22T03:47:45;5.90;;;4.20;;
59872;SDS011;50750;51.636;4.948;2023-07-22T03:50:13;6.00;;;4.00;;
59872;SDS011;50750;51.636;4.948;2023-07-22T03:52:39;5.30;;;3.80;;
59872;SDS011;50750;51.636;4.948;2023-07-22T03:55:06;5.80;;;3.90;;
59872;SDS011;50750;51.636;4.948;2023-07-22T03:57:33;6.20;;;4.00;;
59872;SDS011;50750;51.636;4.948;2023-07-22T03:59:59;5.80;;;4.60;;
59872;SDS011;50750;51.636;4.948;2023-07-22T04:02:26;5.70;;;4.00;;
59872;SDS011;50750;51.636;4.948;2023-07-22T04:04:53;5.50;;;3.80;;
59872;SDS011;50750;51.636;4.948;2023-07-22T04:07:21;6.40;;;4.50;;
59872;SDS011;50750;51.636;4.948;2023-07-22T04:09:48;5.90;;;4.20;;
59872;SDS011;50750;51.636;4.948;2023-07-22T04:12:15;5.60;;;4.10;;
59872;SDS011;50750;51.636;4.948;2023-07-22T04:14:41;5.40;;;4.10;;
59872;SDS011;50750;51.636;4.948;2023-07-22T04:17:07;6.60;;;4.10;;
59872;SDS011;50750;51.636;4.948;2023-07-22T04:19:34;6.30;;;4.70;;
59872;SDS011;50750;51.636;4.948;2023-07-22T04:22:01;5.50;;;4.10;;
59872;SDS011;50750;51.636;4.948;2023-07-22T04:26:57;4.90;;;3.70;;
59872;SDS011;50750;51.636;4.948;2023-07-22T04:29:24;5.60;;;4.10;;
59872;SDS011;50750;51.636;4.948;2023-07-22T04:31:50;5.50;;;4.30;;
59872;SDS011;50750;51.636;4.948;2023-07-22T04:34:17;4.80;;;3.70;;
59872;SDS011;50750;51.636;4.948;2023-07-22T04:36:43;5.40;;;4.00;;
59872;SDS011;50750;51.636;4.948;2023-07-22T04:39:09;5.40;;;4.00;;
59872;SDS011;50750;51.636;4.948;2023-07-22T04:41:36;6.10;;;4.10;;
59872;SDS011;50750;51.636;4.948;2023-07-22T04:44:02;6.10;;;4.20;;
59872;SDS011;50750;51.636;4.948;2023-07-22T04:46:29;5.80;;;4.10;;
59872;SDS011;50750;51.636;4.948;2023-07-22T04:48:56;6.20;;;4.60;;
59872;SDS011;50750;51.636;4.948;2023-07-22T04:51:24;5.90;;;3.80;;
59872;SDS011;50750;51.636;4.948;2023-07-22T04:53:50;5.90;;;4.40;;
59872;SDS011;50750;51.636;4.948;2023-07-22T04:56:16;5.50;;;4.30;;
59872;SDS011;50750;51.636;4.948;2023-07-22T04:58:43;6.20;;;4.10;;
59872;SDS011;50750;51.636;4.948;2023-07-22T05:01:10;6.00;;;4.20;;
59872;SDS011;50750;51.636;4.948;2023-07-22T05:03:36;5.80;;;4.40;;
59872;SDS011;50750;51.636;4.948;2023-07-22T05:06:02;5.70;;;4.00;;
59872;SDS011;50750;51.636;4.948;2023-07-22T05:08:29;5.10;;;3.80;;
59872;SDS011;50750;51.636;4.948;2023-07-22T05:10:55;5.30;;;3.90;;
59872;SDS011;50750;51.636;4.948;2023-07-22T05:13:21;5.60;;;4.20;;
59872;SDS011;50750;51.636;4.948;2023-07-22T05:15:48;5.40;;;4.10;;
59872;SDS011;50750;51.636;4.948;2023-07-22T05:18:15;5.60;;;3.90;;
59872;SDS011;50750;51.636;4.948;2023-07-22T05:20:41;5.80;;;4.20;;
59872;SDS011;50750;51.636;4.948;2023-07-22T05:23:08;5.90;;;4.30;;
59872;SDS011;50750;51.636;4.948;2023-07-22T05:25:34;5.80;;;4.30;;
59872;SDS011;50750;51.636;4.948;2023-07-22T05:28:00;5.10;;;4.10;;
59872;SDS011;50750;51.636;4.948;2023-07-22T05:30:27;5.60;;;3.80;;
59872;SDS011;50750;51.636;4.948;2023-07-22T05:32:53;5.80;;;4.30;;
59872;SDS011;50750;51.636;4.948;2023-07-22T05:35:20;5.00;;;3.70;;
59872;SDS011;50750;51.636;4.948;2023-07-22T05:37:46;5.30;;;4.10;;
59872;SDS011;50750;51.636;4.948;2023-07-22T05:40:12;5.50;;;4.10;;
59872;SDS011;50750;51.636;4.948;2023-07-22T05:42:39;4.70;;;3.70;;
59872;SDS011;50750;51.636;4.948;2023-07-22T05:45:07;5.30;;;4.10;;
59872;SDS011;50750;51.636;4.948;2023-07-22T05:47:34;5.20;;;4.10;;
59872;SDS011;50750;51.636;4.948;2023-07-22T05:50:00;5.50;;;4.00;;
59872;SDS011;50750;51.636;4.948;2023-07-22T05:52:27;5.40;;;4.20;;
59872;SDS011;50750;51.636;4.948;2023-07-22T05:54:53;5.50;;;4.00;;
59872;SDS011;50750;51.636;4.948;2023-07-22T05:57:20;5.30;;;4.00;;
59872;SDS011;50750;51.636;4.948;2023-07-22T05:59:46;5.00;;;3.90;;
59872;SDS011;50750;51.636;4.948;2023-07-22T06:02:13;5.70;;;4.30;;
59872;SDS011;50750;51.636;4.948;2023-07-22T06:04:39;5.60;;;4.30;;
59872;SDS011;50750;51.636;4.948;2023-07-22T06:07:05;5.80;;;4.30;;
59872;SDS011;50750;51.636;4.948;2023-07-22T06:09:32;6.10;;;4.20;;
59872;SDS011;50750;51.636;4.948;2023-07-22T06:11:58;5.70;;;4.50;;
59872;SDS011;50750;51.636;4.948;2023-07-22T06:14:25;5.50;;;3.80;;
59872;SDS011;50750;51.636;4.948;2023-07-22T06:16:51;5.70;;;4.10;;
59872;SDS011;50750;51.636;4.948;2023-07-22T06:19:19;5.40;;;4.10;;
59872;SDS011;50750;51.636;4.948;2023-07-22T06:21:45;5.60;;;3.90;;
59872;SDS011;50750;51.636;4.948;2023-07-22T06:24:11;5.50;;;3.80;;
59872;SDS011;50750;51.636;4.948;2023-07-22T06:26:38;7.40;;;4.30;;
59872;SDS011;50750;51.636;4.948;2023-07-22T06:29:08;4.60;;;3.90;;
59872;SDS011;50750;51.636;4.948;2023-07-22T06:31:34;5.90;;;4.10;;
59872;SDS011;50750;51.636;4.948;2023-07-22T06:34:01;4.90;;;3.90;;
59872;SDS011;50750;51.636;4.948;2023-07-22T06:36:27;6.00;;;4.00;;
59872;SDS011;50750;51.636;4.948;2023-07-22T06:38:54;5.00;;;3.90;;
59872;SDS011;50750;51.636;4.948;2023-07-22T06:41:21;6.50;;;4.50;;
59872;SDS011;50750;51.636;4.948;2023-07-22T06:43:49;5.70;;;3.90;;
59872;SDS011;50750;51.636;4.948;2023-07-22T06:46:16;5.80;;;4.10;;
59872;SDS011;50750;51.636;4.948;2023-07-22T06:48:42;5.60;;;4.10;;
59872;SDS011;50750;51.636;4.948;2023-07-22T06:51:09;5.70;;;4.00;;
59872;SDS011;50750;51.636;4.948;2023-07-22T06:53:35;5.20;;;3.90;;
59872;SDS011;50750;51.636;4.948;2023-07-22T06:56:02;5.50;;;4.00;;
59872;SDS011;50750;51.636;4.948;2023-07-22T06:58:29;5.80;;;3.90;;
59872;SDS011;50750;51.636;4.948;2023-07-22T07:00:56;5.90;;;4.00;;
59872;SDS011;50750;51.636;4.948;2023-07-22T07:03:22;5.90;;;4.00;;
59872;SDS011;50750;51.636;4.948;2023-07-22T07:05:53;5.10;;;3.80;;
59872;SDS011;50750;51.636;4.948;2023-07-22T07:08:20;6.50;;;3.90;;
59872;SDS011;50750;51.636;4.948;2023-07-22T07:10:47;5.50;;;3.60;;
59872;SDS011;50750;51.636;4.948;2023-07-22T07:13:14;6.90;;;4.20;;
59872;SDS011;50750;51.636;4.948;2023-07-22T07:15:40;5.60;;;4.00;;
59872;SDS011;50750;51.636;4.948;2023-07-22T07:18:07;5.30;;;3.80;;
59872;SDS011;50750;51.636;4.948;2023-07-22T07:20:33;5.30;;;4.10;;
59872;SDS011;50750;51.636;4.948;2023-07-22T07:23:00;5.80;;;3.80;;
59872;SDS011;50750;51.636;4.948;2023-07-22T07:25:26;5.40;;;3.90;;
59872;SDS011;50750;51.636;4.948;2023-07-22T07:27:53;5.30;;;3.90;;
59872;SDS011;50750;51.636;4.948;2023-07-22T07:30:19;5.40;;;3.90;;
59872;SDS011;50750;51.636;4.948;2023-07-22T07:32:46;6.20;;;4.00;;
59872;SDS011;50750;51.636;4.948;2023-07-22T07:35:12;6.70;;;3.90;;
59872;SDS011;50750;51.636;4.948;2023-07-22T07:37:38;5.50;;;3.80;;
59872;SDS011;50750;51.636;4.948;2023-07-22T07:40:05;5.20;;;3.80;;
59872;SDS011;50750;51.636;4.948;2023-07-22T07:42:32;6.10;;;4.10;;
59872;SDS011;50750;51.636;4.948;2023-07-22T07:44:59;5.30;;;4.00;;
59872;SDS011;50750;51.636;4.948;2023-07-22T07:47:25;6.50;;;4.20;;
59872;SDS011;50750;51.636;4.948;2023-07-22T07:49:52;5.20;;;4.00;;
59872;SDS011;50750;51.636;4.948;2023-07-22T07:52:18;5.20;;;3.80;;
59872;SDS011;50750;51.636;4.948;2023-07-22T07:54:44;5.60;;;3.80;;
59872;SDS011;50750;51.636;4.948;2023-07-22T07:57:11;5.90;;;4.20;;
59872;SDS011;50750;51.636;4.948;2023-07-22T07:59:37;5.20;;;3.90;;
59872;SDS011;50750;51.636;4.948;2023-07-22T08:02:04;5.00;;;3.90;;
59872;SDS011;50750;51.636;4.948;2023-07-22T08:04:35;5.70;;;3.90;;
59872;SDS011;50750;51.636;4.948;2023-07-22T08:07:01;5.70;;;3.80;;
59872;SDS011;50750;51.636;4.948;2023-07-22T08:09:30;5.60;;;3.80;;
59872;SDS011;50750;51.636;4.948;2023-07-22T08:11:56;4.60;;;3.50;;
59872;SDS011;50750;51.636;4.948;2023-07-22T08:14:23;5.20;;;3.60;;
59872;SDS011;50750;51.636;4.948;2023-07-22T08:16:49;7.10;;;3.70;;
59872;SDS011;50750;51.636;4.948;2023-07-22T08:19:15;5.10;;;3.50;;
59872;SDS011;50750;51.636;4.948;2023-07-22T08:21:42;5.80;;;3.70;;
59872;SDS011;50750;51.636;4.948;2023-07-22T08:24:08;5.70;;;3.50;;
59872;SDS011;50750;51.636;4.948;2023-07-22T08:26:35;5.60;;;3.90;;
59872;SDS011;50750;51.636;4.948;2023-07-22T08:29:01;5.40;;;3.80;;
59872;SDS011;50750;51.636;4.948;2023-07-22T08:31:28;6.70;;;3.80;;
59872;SDS011;50750;51.636;4.948;2023-07-22T08:33:54;4.90;;;3.80;;
59872;SDS011;50750;51.636;4.948;2023-07-22T08:36:21;4.80;;;3.50;;
59872;SDS011;50750;51.636;4.948;2023-07-22T08:38:48;4.50;;;3.40;;
59872;SDS011;50750;51.636;4.948;2023-07-22T08:41:14;4.90;;;3.60;;
59872;SDS011;50750;51.636;4.948;2023-07-22T08:43:42;5.80;;;3.60;;
59872;SDS011;50750;51.636;4.948;2023-07-22T08:46:12;4.60;;;3.40;;
59872;SDS011;50750;51.636;4.948;2023-07-22T08:48:39;4.60;;;3.50;;
59872;SDS011;50750;51.636;4.948;2023-07-22T08:51:12;5.30;;;3.70;;
59872;SDS011;50750;51.636;4.948;2023-07-22T08:53:45;5.40;;;3.50;;
59872;SDS011;50750;51.636;4.948;2023-07-22T08:56:13;4.70;;;3.30;;
59872;SDS011;50750;51.636;4.948;2023-07-22T08:58:39;4.40;;;3.40;;
59872;SDS011;50750;51.636;4.948;2023-07-22T09:01:08;5.10;;;3.80;;
59872;SDS011;50750;51.636;4.948;2023-07-22T09:03:35;6.60;;;3.60;;
59872;SDS011;50750;51.636;4.948;2023-07-22T09:06:04;4.70;;;3.40;;
59872;SDS011;50750;51.636;4.948;2023-07-22T09:08:30;5.10;;;3.50;;
59872;SDS011;50750;51.636;4.948;2023-07-22T09:10:57;5.50;;;3.60;;
59872;SDS011;50750;51.636;4.948;2023-07-22T09:13:24;4.80;;;3.20;;
59872;SDS011;50750;51.636;4.948;2023-07-22T09:15:52;5.50;;;3.30;;
59872;SDS011;50750;51.636;4.948;2023-07-22T09:18:19;4.90;;;3.30;;
59872;SDS011;50750;51.636;4.948;2023-07-22T09:20:46;4.20;;;3.10;;
59872;SDS011;50750;51.636;4.948;2023-07-22T09:23:12;5.20;;;3.60;;
59872;SDS011;50750;51.636;4.948;2023-07-22T09:25:40;4.80;;;3.50;;
59872;SDS011;50750;51.636;4.948;2023-07-22T09:28:07;5.00;;;3.60;;
59872;SDS011;50750;51.636;4.948;2023-07-22T09:30:35;6.10;;;3.30;;
59872;SDS011;50750;51.636;4.948;2023-07-22T09:33:05;5.50;;;3.10;;
59872;SDS011;50750;51.636;4.948;2023-07-22T09:35:49;4.90;;;3.20;;
59872;SDS011;50750;51.636;4.948;2023-07-22T09:38:22;4.40;;;3.10;;
59872;SDS011;50750;51.636;4.948;2023-07-22T09:40:50;4.30;;;3.00;;
59872;SDS011;50750;51.636;4.948;2023-07-22T09:43:17;5.00;;;3.20;;
59872;SDS011;50750;51.636;4.948;2023-07-22T09:45:46;5.10;;;3.00;;
59872;SDS011;50750;51.636;4.948;2023-07-22T09:48:13;4.70;;;2.90;;
59872;SDS011;50750;51.636;4.948;2023-07-22T09:50:40;7.40;;;3.50;;
59872;SDS011;50750;51.636;4.948;2023-07-22T09:53:07;4.30;;;3.00;;
59872;SDS011;50750;51.636;4.948;2023-07-22T09:55:33;5.90;;;3.50;;
59872;SDS011;50750;51.636;4.948;2023-07-22T10:00:37;5.10;;;3.10;;
59872;SDS011;50750;51.636;4.948;2023-07-22T10:03:07;4.40;;;3.20;;
59872;SDS011;50750;51.636;4.948;2023-07-22T10:05:37;4.70;;;3.10;;
59872;SDS011;50750;51.636;4.948;2023-07-22T10:08:05;5.90;;;3.00;;
59872;SDS011;50750;51.636;4.948;2023-07-22T10:10:37;5.60;;;3.30;;
59872;SDS011;50750;51.636;4.948;2023-07-22T10:13:04;6.30;;;3.20;;
59872;SDS011;50750;51.636;4.948;2023-07-22T10:15:32;6.40;;;3.70;;
59872;SDS011;50750;51.636;4.948;2023-07-22T10:18:00;4.00;;;2.70;;
59872;SDS011;50750;51.636;4.948;2023-07-22T10:20:28;5.40;;;3.10;;
59872;SDS011;50750;51.636;4.948;2023-07-22T10:22:56;6.30;;;3.50;;
59872;SDS011;50750;51.636;4.948;2023-07-22T10:25:23;5.30;;;3.20;;
59872;SDS011;50750;51.636;4.948;2023-07-22T10:27:50;4.80;;;3.00;;
59872;SDS011;50750;51.636;4.948;2023-07-22T10:30:18;3.80;;;2.80;;
59872;SDS011;50750;51.636;4.948;2023-07-22T10:32:46;4.90;;;2.80;;
59872;SDS011;50750;51.636;4.948;2023-07-22T10:37:44;4.70;;;3.20;;
59872;SDS011;50750;51.636;4.948;2023-07-22T10:40:27;4.90;;;3.00;;
59872;SDS011;50750;51.636;4.948;2023-07-22T10:43:04;5.00;;;3.10;;
59872;SDS011;50750;51.636;4.948;2023-07-22T10:45:33;4.40;;;2.80;;
59872;SDS011;50750;51.636;4.948;2023-07-22T10:50:39;3.80;;;2.70;;
59872;SDS011;50750;51.636;4.948;2023-07-22T10:53:13;4.40;;;2.90;;
59872;SDS011;50750;51.636;4.948;2023-07-22T10:56:05;4.40;;;2.80;;
59872;SDS011;50750;51.636;4.948;2023-07-22T11:07:00;4.90;;;2.50;;
59872;SDS011;50750;51.636;4.948;2023-07-22T11:11:58;3.80;;;2.70;;
59872;SDS011;50750;51.636;4.948;2023-07-22T11:14:29;5.00;;;2.80;;
59872;SDS011;50750;51.636;4.948;2023-07-22T11:16:58;4.90;;;2.80;;
59872;SDS011;50750;51.636;4.948;2023-07-22T11:19:27;4.00;;;2.80;;
59872;SDS011;50750;51.636;4.948;2023-07-22T11:21:53;4.90;;;2.70;;
59872;SDS011;50750;51.636;4.948;2023-07-22T11:24:22;3.40;;;2.30;;
59872;SDS011;50750;51.636;4.948;2023-07-22T11:26:50;3.70;;;2.50;;
59872;SDS011;50750;51.636;4.948;2023-07-22T11:29:17;4.20;;;2.40;;
59872;SDS011;50750;51.636;4.948;2023-07-22T11:31:44;3.80;;;2.20;;
59872;SDS011;50750;51.636;4.948;2023-07-22T11:34:13;3.80;;;2.40;;
59872;SDS011;50750;51.636;4.948;2023-07-22T11:36:40;4.20;;;2.30;;
59872;SDS011;50750;51.636;4.948;2023-07-22T11:39:14;3.70;;;2.20;;
59872;SDS011;50750;51.636;4.948;2023-07-22T11:41:42;3.40;;;2.20;;
59872;SDS011;50750;51.636;4.948;2023-07-22T11:44:10;4.30;;;2.40;;
59872;SDS011;50750;51.636;4.948;2023-07-22T11:47:00;4.20;;;2.60;;
59872;SDS011;50750;51.636;4.948;2023-07-22T11:49:30;4.00;;;2.50;;
59872;SDS011;50750;51.636;4.948;2023-07-22T11:52:08;3.90;;;2.30;;
59872;SDS011;50750;51.636;4.948;2023-07-22T11:54:37;3.50;;;2.20;;
59872;SDS011;50750;51.636;4.948;2023-07-22T11:59:47;3.90;;;2.10;;
59872;SDS011;50750;51.636;4.948;2023-07-22T12:02:14;4.30;;;2.30;;
59872;SDS011;50750;51.636;4.948;2023-07-22T12:04:43;4.30;;;2.60;;
59872;SDS011;50750;51.636;4.948;2023-07-22T12:09:54;3.70;;;2.40;;
59872;SDS011;50750;51.636;4.948;2023-07-22T12:12:31;4.40;;;2.30;;
59872;SDS011;50750;51.636;4.948;2023-07-22T12:15:41;3.50;;;2.20;;
59872;SDS011;50750;51.636;4.948;2023-07-22T12:17:53;4.30;;;2.40;;
59872;SDS011;50750;51.636;4.948;2023-07-22T12:20:28;5.80;;;2.60;;
59872;SDS011;50750;51.636;4.948;2023-07-22T12:22:57;4.70;;;2.20;;
59872;SDS011;50750;51.636;4.948;2023-07-22T12:25:24;3.30;;;2.10;;
59872;SDS011;50750;51.636;4.948;2023-07-22T12:27:51;3.50;;;2.00;;
59872;SDS011;50750;51.636;4.948;2023-07-22T12:30:17;3.60;;;2.30;;
59872;SDS011;50750;51.636;4.948;2023-07-22T12:32:45;4.10;;;2.30;;
59872;SDS011;50750;51.636;4.948;2023-07-22T12:35:12;4.20;;;2.40;;
59872;SDS011;50750;51.636;4.948;2023-07-22T12:37:39;3.90;;;2.40;;
59872;SDS011;50750;51.636;4.948;2023-07-22T12:40:06;4.80;;;2.80;;
59872;SDS011;50750;51.636;4.948;2023-07-22T12:42:34;4.60;;;2.80;;
59872;SDS011;50750;51.636;4.948;2023-07-22T12:45:02;3.60;;;2.20;;
59872;SDS011;50750;51.636;4.948;2023-07-22T12:47:30;3.90;;;2.30;;
59872;SDS011;50750;51.636;4.948;2023-07-22T12:49:56;4.40;;;2.20;;
59872;SDS011;50750;51.636;4.948;2023-07-22T12:52:22;4.40;;;2.70;;
59872;SDS011;50750;51.636;4.948;2023-07-22T12:54:49;4.90;;;2.10;;
59872;SDS011;50750;51.636;4.948;2023-07-22T12:57:15;4.70;;;2.80;;
59872;SDS011;50750;51.636;4.948;2023-07-22T12:59:41;3.20;;;2.10;;
59872;SDS011;50750;51.636;4.948;2023-07-22T13:02:08;4.40;;;2.40;;
59872;SDS011;50750;51.636;4.948;2023-07-22T13:04:34;3.30;;;2.00;;
59872;SDS011;50750;51.636;4.948;2023-07-22T13:07:00;4.00;;;2.20;;
59872;SDS011;50750;51.636;4.948;2023-07-22T13:09:27;3.10;;;2.00;;
59872;SDS011;50750;51.636;4.948;2023-07-22T13:11:53;4.50;;;2.20;;
59872;SDS011;50750;51.636;4.948;2023-07-22T13:14:20;4.50;;;2.20;;
59872;SDS011;50750;51.636;4.948;2023-07-22T13:16:46;3.50;;;1.90;;
59872;SDS011;50750;51.636;4.948;2023-07-22T13:19:13;4.50;;;1.90;;
59872;SDS011;50750;51.636;4.948;2023-07-22T13:21:39;4.30;;;1.80;;
59872;SDS011;50750;51.636;4.948;2023-07-22T13:24:07;3.40;;;1.70;;
59872;SDS011;50750;51.636;4.948;2023-07-22T13:26:34;3.50;;;1.80;;
59872;SDS011;50750;51.636;4.948;2023-07-22T13:29:01;4.40;;;2.20;;
59872;SDS011;50750;51.636;4.948;2023-07-22T13:31:27;3.80;;;2.10;;
59872;SDS011;50750;51.636;4.948;2023-07-22T13:33:54;4.60;;;2.00;;
59872;SDS011;50750;51.636;4.948;2023-07-22T13:36:21;3.60;;;2.20;;
59872;SDS011;50750;51.636;4.948;2023-07-22T13:38:47;4.30;;;2.00;;
59872;SDS011;50750;51.636;4.948;2023-07-22T13:41:13;2.80;;;1.70;;
59872;SDS011;50750;51.636;4.948;2023-07-22T13:43:40;3.20;;;2.00;;
59872;SDS011;50750;51.636;4.948;2023-07-22T13:46:06;3.40;;;2.20;;
59872;SDS011;50750;51.636;4.948;2023-07-22T13:48:32;4.10;;;2.20;;
59872;SDS011;50750;51.636;4.948;2023-07-22T13:50:59;3.90;;;2.00;;
59872;SDS011;50750;51.636;4.948;2023-07-22T13:53:25;4.60;;;2.20;;
59872;SDS011;50750;51.636;4.948;2023-07-22T13:55:52;3.10;;;2.00;;
59872;SDS011;50750;51.636;4.948;2023-07-22T13:58:18;4.90;;;2.10;;
59872;SDS011;50750;51.636;4.948;2023-07-22T14:00:44;3.30;;;1.80;;
59872;SDS011;50750;51.636;4.948;2023-07-22T14:03:11;3.10;;;1.90;;
59872;SDS011;50750;51.636;4.948;2023-07-22T14:05:37;3.70;;;1.90;;
59872;SDS011;50750;51.636;4.948;2023-07-22T14:08:04;3.10;;;2.00;;
59872;SDS011;50750;51.636;4.948;2023-07-22T14:10:30;3.80;;;2.10;;
59872;SDS011;50750;51.636;4.948;2023-07-22T14:12:56;3.70;;;2.30;;
59872;SDS011;50750;51.636;4.948;2023-07-22T14:15:23;3.80;;;2.30;;
59872;SDS011;50750;51.636;4.948;2023-07-22T14:17:49;3.50;;;2.00;;
59872;SDS011;50750;51.636;4.948;2023-07-22T14:20:15;4.10;;;2.10;;
59872;SDS011;50750;51.636;4.948;2023-07-22T14:22:42;3.60;;;2.10;;
59872;SDS011;50750;51.636;4.948;2023-07-22T14:25:09;3.60;;;2.00;;
59872;SDS011;50750;51.636;4.948;2023-07-22T14:27:37;4.20;;;2.20;;
59872;SDS011;50750;51.636;4.948;2023-07-22T14:32:32;2.90;;;1.90;;
59872;SDS011;50750;51.636;4.948;2023-07-22T14:34:58;4.20;;;2.20;;
59872;SDS011;50750;51.636;4.948;2023-07-22T14:37:24;2.90;;;1.90;;
59872;SDS011;50750;51.636;4.948;2023-07-22T14:39:51;3.40;;;2.10;;
59872;SDS011;50750;51.636;4.948;2023-07-22T14:42:17;3.70;;;2.10;;
59872;SDS011;50750;51.636;4.948;2023-07-22T14:44:44;3.20;;;2.00;;
59872;SDS011;50750;51.636;4.948;2023-07-22T14:47:11;3.80;;;1.80;;
59872;SDS011;50750;51.636;4.948;2023-07-22T14:49:37;3.90;;;2.10;;
59872;SDS011;50750;51.636;4.948;2023-07-22T14:52:04;3.90;;;2.20;;
59872;SDS011;50750;51.636;4.948;2023-07-22T14:54:31;3.60;;;2.20;;
59872;SDS011;50750;51.636;4.948;2023-07-22T14:56:58;4.50;;;2.10;;
59872;SDS011;50750;51.636;4.948;2023-07-22T14:59:25;2.90;;;1.70;;
59872;SDS011;50750;51.636;4.948;2023-07-22T15:01:52;4.70;;;1.80;;
59872;SDS011;50750;51.636;4.948;2023-07-22T15:04:19;3.20;;;1.80;;
59872;SDS011;50750;51.636;4.948;2023-07-22T15:06:45;4.10;;;2.30;;
59872;SDS011;50750;51.636;4.948;2023-07-22T15:09:11;3.40;;;1.80;;
59872;SDS011;50750;51.636;4.948;2023-07-22T15:11:38;3.30;;;1.90;;
59872;SDS011;50750;51.636;4.948;2023-07-22T15:14:04;2.80;;;1.90;;
59872;SDS011;50750;51.636;4.948;2023-07-22T15:16:31;3.20;;;1.80;;
59872;SDS011;50750;51.636;4.948;2023-07-22T15:18:58;4.00;;;2.00;;
59872;SDS011;50750;51.636;4.948;2023-07-22T15:21:25;4.10;;;2.00;;
59872;SDS011;50750;51.636;4.948;2023-07-22T15:23:52;4.30;;;2.40;;